Pinola, Pennsylvania
Current Conditions -  °F | °C
As of 8:53 PM on Monday 24 Nov 2014 (Local Time) from KRYT Reporting Station
Clear Clear  
Wind Chill: 61°   Ceiling: Unl
Heat Index: 61°   Visibility: 10mi
Dew Point: 50°   Wind: 0mph
Humidity: 67%   Direction: NA
Pressure: 29.68"   Gusts: NA
Location:  40.0414°N, 77.4967°W
Report Text: KRYT 250153Z AUTO 00000KT 10SM CLR 16/10 A2968 RMK AO2 SLP046 T01610100 $
Loading
Personal Weather Stations






























Interactive Weather Map New forecast layout! Learn more

10-Day Weather Forecast

Advertisements
Track Severe Weather on mobile